Terminal Aerodrome Forecast
Issued by NWS

Home | Current Version | Previous Version | Graphics & Text | Print | Product List | Glossary On
Versions: 1 2 3 4 5 6 7 8 9 10 11 12 13
000
FTUS43 KMPX 232320
TAFRNH
TAF
KRNH 232320Z 2400/2424 09007KT P6SM SCT050 OVC070
     FM241400 13008KT 6SM -RA BR OVC035
     FM241700 13008KT 4SM -RA BR OVC025=

USA.gov is the U.S. government's official web portal to all federal, state and local government web resources and services.